createdAt,value
2022-08-08T00:00:50.625Z,12.27
2022-08-08T00:02:31.020Z,12.22
2022-08-08T00:05:12.815Z,12.25
2022-08-08T00:08:04.958Z,12.21
2022-08-08T00:10:52.738Z,12.07
2022-08-08T00:14:17.004Z,11.86
2022-08-08T00:16:55.668Z,11.81
2022-08-08T00:19:41.099Z,11.88
2022-08-08T00:22:24.821Z,11.87
2022-08-08T00:25:08.523Z,11.79
2022-08-08T00:27:42.189Z,11.84
2022-08-08T00:30:15.829Z,11.89
2022-08-08T00:32:53.374Z,12.11
2022-08-08T00:35:41.704Z,12.04
2022-08-08T00:38:44.463Z,11.82
2022-08-08T00:42:31.651Z,11.72
2022-08-08T00:45:33.365Z,11.75
2022-08-08T00:48:59.013Z,11.84
2022-08-08T00:52:04.129Z,11.76
2022-08-08T00:55:01.607Z,11.64
2022-08-08T00:58:12.658Z,11.56
2022-08-08T01:01:02.354Z,11.57
2022-08-08T01:04:04.874Z,11.65
2022-08-08T01:06:47.571Z,11.75
2022-08-08T01:09:41.396Z,11.83
2022-08-08T01:12:47.339Z,11.74
2022-08-08T01:15:54.893Z,11.60
2022-08-08T01:19:52.087Z,11.52
2022-08-08T01:23:04.682Z,11.26
2022-08-08T01:26:27.104Z,11.29
2022-08-08T01:29:23.891Z,11.39
2022-08-08T01:32:21.181Z,11.40
2022-08-08T01:35:11.225Z,11.43
2022-08-08T01:38:07.669Z,11.49
2022-08-08T01:41:16.294Z,11.37
2022-08-08T01:44:20.075Z,11.29
2022-08-08T01:48:11.582Z,11.13
2022-08-08T01:50:24.817Z,11.01
2022-08-08T01:55:16.550Z,11.01
2022-08-08T01:56:51.540Z,11.07
2022-08-08T02:00:03.540Z,11.12
2022-08-08T02:03:07.550Z,11.19
2022-08-08T02:06:32.631Z,11.19
2022-08-08T02:10:01.787Z,11.21
2022-08-08T02:12:32.236Z,11.02
2022-08-08T02:15:16.025Z,10.97
2022-08-08T02:18:10.718Z,11.03
2022-08-08T02:21:17.870Z,10.99
2022-08-08T02:23:55.772Z,10.95
2022-08-08T02:26:37.490Z,10.98
2022-08-08T02:30:00.815Z,10.88
2022-08-08T02:33:01.918Z,10.76
2022-08-08T02:36:04.841Z,10.67
2022-08-08T02:39:01.130Z,10.59
2022-08-08T02:42:03.741Z,10.69
2022-08-08T02:44:58.695Z,10.59
2022-08-08T02:47:58.959Z,10.62
2022-08-08T02:51:29.958Z,10.77
2022-08-08T02:54:44.624Z,10.86
2022-08-08T02:57:40.361Z,10.90
2022-08-08T03:00:38.918Z,10.85
2022-08-08T03:05:04.548Z,10.63
2022-08-08T03:07:19.717Z,10.57
2022-08-08T03:10:32.477Z,10.58
2022-08-08T03:15:56.571Z,10.56
2022-08-08T03:16:57.904Z,10.35
2022-08-08T03:19:27.902Z,10.36
2022-08-08T03:21:59.658Z,10.28
2022-08-08T03:24:26.594Z,10.16
2022-08-08T03:27:35.836Z,10.06
2022-08-08T03:30:19.039Z,10.16
2022-08-08T03:33:07.907Z,10.09
2022-08-08T03:35:52.518Z,10.05
2022-08-08T03:38:55.863Z,10.11
2022-08-08T03:41:32.208Z,10.15
2022-08-08T03:43:59.670Z,10.10
2022-08-08T03:46:32.667Z,10.04
2022-08-08T03:49:56.269Z,9.96
2022-08-08T03:51:54.084Z,9.92
2022-08-08T03:54:51.814Z,9.98
2022-08-08T03:58:35.760Z,9.63
2022-08-08T04:00:11.277Z,9.63
2022-08-08T04:02:47.630Z,9.71
2022-08-08T04:05:22.683Z,9.75
2022-08-08T04:07:54.397Z,9.90
2022-08-08T04:10:21.490Z,9.89
2022-08-08T04:12:49.878Z,9.87
2022-08-08T04:15:16.867Z,9.84
2022-08-08T04:17:57.964Z,9.80
2022-08-08T04:20:28.713Z,9.89
2022-08-08T04:22:58.202Z,10.06
2022-08-08T04:25:30.055Z,10.09
2022-08-08T04:28:35.462Z,10.08
2022-08-08T04:30:48.084Z,10.00
2022-08-08T04:33:15.707Z,10.00
2022-08-08T04:35:51.066Z,10.12
2022-08-08T04:38:21.925Z,10.18
2022-08-08T04:40:53.581Z,10.24
2022-08-08T04:43:22.607Z,10.15
2022-08-08T04:45:59.402Z,10.08
2022-08-08T04:48:25.970Z,10.17
2022-08-08T04:50:53.091Z,10.28
2022-08-08T04:54:27.412Z,10.37
2022-08-08T04:56:07.291Z,10.39
2022-08-08T04:58:34.443Z,10.47
2022-08-08T05:01:09.035Z,10.52
2022-08-08T05:04:10.767Z,10.51
2022-08-08T05:06:25.550Z,10.53
2022-08-08T05:08:54.779Z,10.63
2022-08-08T05:11:24.231Z,10.68
2022-08-08T05:13:58.605Z,10.67
2022-08-08T05:16:51.606Z,10.63
2022-08-08T05:20:12.535Z,10.55
2022-08-08T05:22:02.850Z,10.50
2022-08-08T05:24:30.861Z,10.42
2022-08-08T05:26:58.513Z,10.36
2022-08-08T05:29:27.029Z,10.34
2022-08-08T05:32:03.173Z,10.30
2022-08-08T05:34:46.687Z,10.23
2022-08-08T05:37:39.484Z,10.16
2022-08-08T05:40:11.959Z,10.12
2022-08-08T05:42:45.380Z,10.14
2022-08-08T05:45:25.070Z,10.18
2022-08-08T05:48:01.456Z,10.28
2022-08-08T05:50:33.758Z,10.35
2022-08-08T05:53:53.611Z,10.42
2022-08-08T05:56:10.655Z,10.50
2022-08-08T05:58:57.897Z,10.60
2022-08-08T06:01:56.142Z,10.77
2022-08-08T06:04:24.424Z,10.88
2022-08-08T06:07:00.554Z,11.01
2022-08-08T06:09:41.845Z,11.17
2022-08-08T06:12:30.380Z,11.32
2022-08-08T06:15:03.179Z,11.51
2022-08-08T06:17:50.935Z,11.69
2022-08-08T06:20:23.126Z,11.86
2022-08-08T06:22:53.820Z,11.98
2022-08-08T06:26:34.754Z,12.08
2022-08-08T06:28:29.351Z,12.24
2022-08-08T06:31:01.730Z,12.40
2022-08-08T06:34:25.459Z,12.48
2022-08-08T06:36:53.331Z,12.64
2022-08-08T06:39:21.862Z,12.82
2022-08-08T06:41:59.274Z,12.98
2022-08-08T06:44:30.178Z,13.14
2022-08-08T06:46:59.028Z,13.24
2022-08-08T06:49:56.211Z,13.34
2022-08-08T06:52:16.099Z,13.49
2022-08-08T06:54:44.353Z,13.70
2022-08-08T06:57:15.871Z,13.92
2022-08-08T07:00:12.124Z,14.15
2022-08-08T07:02:33.251Z,14.36
2022-08-08T07:05:20.511Z,14.59
2022-08-08T07:08:03.880Z,14.80
2022-08-08T07:10:47.570Z,15.00
2022-08-08T07:13:18.214Z,15.26
2022-08-08T07:16:05.875Z,15.43
2022-08-08T07:18:51.978Z,15.63
2022-08-08T07:21:31.131Z,15.64
2022-08-08T07:24:10.170Z,15.90
2022-08-08T07:26:41.119Z,16.15
2022-08-08T07:29:11.676Z,16.36
2022-08-08T07:31:56.089Z,16.57
2022-08-08T07:34:31.875Z,16.74
2022-08-08T07:37:01.609Z,16.84
2022-08-08T07:39:45.709Z,16.93
2022-08-08T07:42:32.769Z,17.11
2022-08-08T07:44:59.634Z,17.27
2022-08-08T07:47:38.555Z,17.38
2022-08-08T07:50:07.009Z,17.45
2022-08-08T07:52:36.171Z,17.60
2022-08-08T07:55:13.926Z,17.68
2022-08-08T07:58:00.747Z,17.72
2022-08-08T08:00:43.234Z,17.77
2022-08-08T08:03:23.622Z,17.83
2022-08-08T08:05:51.800Z,17.92
2022-08-08T08:08:27.652Z,18.03
2022-08-08T08:10:59.600Z,18.14
2022-08-08T08:14:06.302Z,18.30
2022-08-08T08:16:33.031Z,18.36
2022-08-08T08:19:12.839Z,18.50
2022-08-08T08:21:57.044Z,18.64
2022-08-08T08:24:30.935Z,18.72
2022-08-08T08:27:02.705Z,18.77
2022-08-08T08:29:29.985Z,18.87
2022-08-08T08:31:58.363Z,18.97
2022-08-08T08:34:32.585Z,19.03
2022-08-08T08:37:03.341Z,19.22
2022-08-08T08:39:59.868Z,19.31
2022-08-08T08:42:31.408Z,19.38
2022-08-08T08:45:21.737Z,19.41
2022-08-08T08:47:58.158Z,19.45
2022-08-08T08:50:31.723Z,19.49
2022-08-08T08:53:27.873Z,19.47
2022-08-08T08:56:01.256Z,19.58
2022-08-08T08:58:35.552Z,19.65
2022-08-08T09:01:10.164Z,19.76
2022-08-08T09:03:46.656Z,19.89
2022-08-08T09:06:33.518Z,20.01
2022-08-08T09:09:36.212Z,20.09
2022-08-08T09:12:11.004Z,20.14
2022-08-08T09:14:42.295Z,20.24
2022-08-08T09:17:15.839Z,20.44
2022-08-08T09:21:58.687Z,20.46
2022-08-08T09:22:35.794Z,20.53
2022-08-08T09:25:04.930Z,20.65
2022-08-08T09:27:50.834Z,20.67
2022-08-08T09:30:20.059Z,20.81
2022-08-08T09:33:13.147Z,20.94
2022-08-08T09:35:49.141Z,21.01
2022-08-08T09:38:35.786Z,20.93
2022-08-08T09:42:14.412Z,21.09
2022-08-08T09:44:46.914Z,21.27
2022-08-08T09:48:03.949Z,21.43
2022-08-08T09:50:15.020Z,21.52
2022-08-08T09:53:05.776Z,21.63
2022-08-08T09:56:04.936Z,21.75
2022-08-08T09:58:41.577Z,21.84
2022-08-08T10:01:14.482Z,21.93
2022-08-08T10:03:55.730Z,22.00
2022-08-08T10:06:29.372Z,22.09
2022-08-08T10:08:56.659Z,22.18
2022-08-08T10:12:26.967Z,22.17
2022-08-08T10:14:28.415Z,22.23
2022-08-08T10:16:58.987Z,22.26
2022-08-08T10:19:38.514Z,22.35
2022-08-08T10:22:25.752Z,22.20
2022-08-08T10:25:02.143Z,22.35
2022-08-08T10:27:34.141Z,22.49
2022-08-08T10:30:04.078Z,22.61
2022-08-08T10:32:34.404Z,22.71
2022-08-08T10:36:09.537Z,22.90
2022-08-08T10:38:16.282Z,22.88
2022-08-08T10:40:45.731Z,22.92
2022-08-08T10:43:13.087Z,22.89
2022-08-08T10:45:55.745Z,22.87
2022-08-08T10:48:37.166Z,22.96
2022-08-08T10:51:13.960Z,23.01
2022-08-08T10:53:57.492Z,23.09
2022-08-08T10:56:32.440Z,23.16
2022-08-08T10:59:09.377Z,23.30
2022-08-08T11:01:41.659Z,23.42
2022-08-08T11:04:10.777Z,23.47
2022-08-08T11:06:41.903Z,23.55
2022-08-08T11:09:20.134Z,23.60
2022-08-08T11:12:05.023Z,23.66
2022-08-08T11:14:53.117Z,23.56
2022-08-08T11:17:59.445Z,23.63
2022-08-08T11:20:14.332Z,23.58
2022-08-08T11:22:54.470Z,23.60
2022-08-08T11:25:52.639Z,23.52
2022-08-08T11:28:18.783Z,23.75
2022-08-08T11:30:50.034Z,23.85
2022-08-08T11:33:23.511Z,23.96
2022-08-08T11:36:10.044Z,24.03
2022-08-08T11:38:53.937Z,24.13
2022-08-08T11:41:24.441Z,24.21
2022-08-08T11:43:53.935Z,24.25
2022-08-08T11:46:28.156Z,24.28
2022-08-08T11:48:59.007Z,24.33
2022-08-08T11:51:38.209Z,24.39
2022-08-08T11:54:13.723Z,24.42
2022-08-08T11:56:57.755Z,24.45
2022-08-08T11:59:58.492Z,24.53
2022-08-08T12:02:33.492Z,24.58
2022-08-08T12:05:12.493Z,24.63
2022-08-08T12:07:56.612Z,24.59
2022-08-08T12:10:30.340Z,24.65
2022-08-08T12:13:02.391Z,24.67
2022-08-08T12:15:42.178Z,24.73
2022-08-08T12:18:24.697Z,24.72
2022-08-08T12:20:55.174Z,24.83
2022-08-08T12:23:43.288Z,24.82
2022-08-08T12:26:28.567Z,24.86
2022-08-08T12:29:03.545Z,25.04
2022-08-08T12:31:39.459Z,24.96
2022-08-08T12:34:20.009Z,24.94
2022-08-08T12:36:49.404Z,24.90
2022-08-08T12:40:00.233Z,24.91
2022-08-08T12:42:21.151Z,24.95
2022-08-08T12:44:50.393Z,25.09
2022-08-08T12:47:57.977Z,25.09
2022-08-08T12:50:14.970Z,25.07
2022-08-08T12:52:42.454Z,25.04
2022-08-08T12:55:14.315Z,25.13
2022-08-08T12:57:56.682Z,25.20
2022-08-08T13:00:34.250Z,25.25
2022-08-08T13:03:07.293Z,25.37
2022-08-08T13:06:03.613Z,25.41
2022-08-08T13:08:21.834Z,25.19
2022-08-08T13:10:56.143Z,25.33
2022-08-08T13:13:37.061Z,25.43
2022-08-08T13:16:25.974Z,25.42
2022-08-08T13:19:06.617Z,25.43
2022-08-08T13:21:55.653Z,25.49
2022-08-08T13:24:42.549Z,25.53
2022-08-08T13:27:16.390Z,25.50
2022-08-08T13:30:02.561Z,25.54
2022-08-08T13:32:39.709Z,25.46
2022-08-08T13:35:11.781Z,25.43
2022-08-08T13:38:06.038Z,25.47
2022-08-08T13:40:35.556Z,25.51
2022-08-08T13:43:03.659Z,25.60
2022-08-08T13:45:31.263Z,25.66
2022-08-08T13:48:03.730Z,25.72
2022-08-08T13:50:49.443Z,25.68
2022-08-08T13:53:34.180Z,25.50
2022-08-08T13:56:11.249Z,25.50
2022-08-08T13:58:56.541Z,25.50
2022-08-08T14:01:33.116Z,25.59
2022-08-08T14:04:22.940Z,25.63
2022-08-08T14:06:58.173Z,25.66
2022-08-08T14:10:05.047Z,25.77
2022-08-08T14:12:28.453Z,25.79
2022-08-08T14:14:55.619Z,25.68
2022-08-08T14:17:57.817Z,25.68
2022-08-08T14:20:15.007Z,25.50
2022-08-08T14:23:21.516Z,25.41
2022-08-08T14:26:10.646Z,25.41
2022-08-08T14:28:39.951Z,25.48
2022-08-08T14:31:11.368Z,25.43
2022-08-08T14:33:57.570Z,25.52
2022-08-08T14:36:36.659Z,25.46
2022-08-08T14:39:11.780Z,25.71
2022-08-08T14:41:54.185Z,25.48
2022-08-08T14:44:35.024Z,25.33
2022-08-08T14:47:02.584Z,25.34
2022-08-08T14:50:05.876Z,25.33
2022-08-08T14:53:14.270Z,25.25
2022-08-08T14:55:43.085Z,25.24
2022-08-08T14:58:11.763Z,25.20
2022-08-08T15:00:43.366Z,25.32
2022-08-08T15:03:14.440Z,25.36
2022-08-08T15:05:52.404Z,25.27
2022-08-08T15:08:34.314Z,25.23
2022-08-08T15:11:04.332Z,25.14
2022-08-08T15:13:40.239Z,25.13
2022-08-08T15:16:18.104Z,25.16
2022-08-08T15:18:51.280Z,25.16
2022-08-08T15:21:20.688Z,25.22
2022-08-08T15:23:51.008Z,25.34
2022-08-08T15:26:20.094Z,25.25
2022-08-08T15:28:53.075Z,25.20
2022-08-08T15:31:55.833Z,25.39
2022-08-08T15:34:29.714Z,25.11
2022-08-08T15:36:55.814Z,25.08
2022-08-08T15:39:22.403Z,25.09
2022-08-08T15:41:49.411Z,24.99
2022-08-08T15:44:17.825Z,24.93
2022-08-08T15:46:45.650Z,24.88
2022-08-08T15:49:17.561Z,24.78
2022-08-08T15:51:54.478Z,24.81
2022-08-08T15:54:38.500Z,24.78
2022-08-08T15:57:09.065Z,24.73
2022-08-08T16:00:18.309Z,24.90
2022-08-08T16:02:31.228Z,25.03
2022-08-08T16:05:00.665Z,24.97
2022-08-08T16:07:39.601Z,24.86
2022-08-08T16:13:14.403Z,25.03
2022-08-08T16:13:27.756Z,24.72
2022-08-08T16:15:57.593Z,24.34
2022-08-08T16:18:27.668Z,24.21
2022-08-08T16:21:00.019Z,24.74
2022-08-08T16:23:31.816Z,24.66
2022-08-08T16:26:03.978Z,24.61
2022-08-08T16:28:34.970Z,24.70
2022-08-08T16:31:03.191Z,24.60
2022-08-08T16:33:38.960Z,24.51
2022-08-08T16:36:09.715Z,24.45
2022-08-08T16:38:44.403Z,24.44
2022-08-08T16:41:20.306Z,24.55
2022-08-08T16:43:50.665Z,24.72
2022-08-08T16:46:43.738Z,24.52
2022-08-08T16:49:09.351Z,24.44
2022-08-08T16:55:00.890Z,24.43
2022-08-08T16:55:03.428Z,24.46
2022-08-08T16:58:11.773Z,24.28
2022-08-08T17:00:08.578Z,24.16
2022-08-08T17:02:38.754Z,24.21
2022-08-08T17:05:10.197Z,24.14
2022-08-08T17:07:40.904Z,24.08
2022-08-08T17:10:10.204Z,24.08
2022-08-08T17:12:38.775Z,24.09
2022-08-08T17:15:17.610Z,24.01
2022-08-08T17:18:02.702Z,24.00
2022-08-08T17:20:32.564Z,24.05
2022-08-08T17:23:16.364Z,24.08
2022-08-08T17:25:52.627Z,24.24
2022-08-08T17:28:34.216Z,23.97
2022-08-08T17:31:11.821Z,23.96
2022-08-08T17:34:53.906Z,24.00
2022-08-08T17:36:55.543Z,23.94
2022-08-08T17:40:03.886Z,23.93
2022-08-08T17:42:12.798Z,23.63
2022-08-08T17:44:39.734Z,23.97
2022-08-08T17:47:09.662Z,23.83
2022-08-08T17:49:42.597Z,23.72
2022-08-08T17:52:10.304Z,23.60
2022-08-08T17:54:37.467Z,23.51
2022-08-08T17:57:05.777Z,23.47
2022-08-08T17:59:45.383Z,23.42
2022-08-08T18:02:16.434Z,23.35
2022-08-08T18:04:51.068Z,23.32
2022-08-08T18:08:15.622Z,23.23
2022-08-08T18:10:07.297Z,23.17
2022-08-08T18:12:34.258Z,23.18
2022-08-08T18:15:01.671Z,23.17
2022-08-08T18:18:05.485Z,23.12
2022-08-08T18:20:43.910Z,22.98
2022-08-08T18:23:01.166Z,22.59
2022-08-08T18:25:28.585Z,22.62
2022-08-08T18:28:04.585Z,22.62
2022-08-08T18:30:32.940Z,22.64
2022-08-08T18:32:59.470Z,22.63
2022-08-08T18:35:34.169Z,22.62
2022-08-08T18:38:17.163Z,22.55
2022-08-08T18:40:46.386Z,22.50
2022-08-08T18:43:14.942Z,22.39
2022-08-08T18:46:08.562Z,22.30
2022-08-08T18:48:31.488Z,22.15
2022-08-08T18:50:59.145Z,22.07
2022-08-08T18:53:51.617Z,22.00
2022-08-08T18:56:28.985Z,21.81
2022-08-08T18:58:55.524Z,21.66
2022-08-08T19:02:24.931Z,21.64
2022-08-08T19:04:10.812Z,21.54
2022-08-08T19:06:39.234Z,21.44
2022-08-08T19:09:13.198Z,21.35
2022-08-08T19:11:46.313Z,21.21
2022-08-08T19:14:20.739Z,21.14
2022-08-08T19:16:48.302Z,21.09
2022-08-08T19:19:17.666Z,21.04
2022-08-08T19:21:48.756Z,20.95
2022-08-08T19:24:34.144Z,20.92
2022-08-08T19:27:04.038Z,20.91
2022-08-08T19:29:30.905Z,20.91
2022-08-08T19:31:57.788Z,20.89
2022-08-08T19:34:35.915Z,20.85
2022-08-08T19:37:05.500Z,20.76
2022-08-08T19:39:35.592Z,20.75
2022-08-08T19:42:04.627Z,20.69
2022-08-08T19:44:42.758Z,20.63
2022-08-08T19:47:12.487Z,20.58
2022-08-08T19:49:39.534Z,20.47
2022-08-08T19:52:11.853Z,20.45
2022-08-08T19:54:40.048Z,20.41
2022-08-08T19:57:09.871Z,20.35
2022-08-08T19:59:41.954Z,20.24
2022-08-08T20:02:10.637Z,20.06
2022-08-08T20:04:38.397Z,19.89
2022-08-08T20:08:30.760Z,19.76
2022-08-08T20:09:57.147Z,19.59
2022-08-08T20:12:32.172Z,19.47
2022-08-08T20:15:14.127Z,19.38
2022-08-08T20:17:45.202Z,19.22
2022-08-08T20:20:19.284Z,19.09
2022-08-08T20:22:54.314Z,18.96
2022-08-08T20:25:24.564Z,18.85
2022-08-08T20:27:54.116Z,18.79
2022-08-08T20:30:52.357Z,18.71
2022-08-08T20:33:19.854Z,18.56
2022-08-08T20:35:58.810Z,18.49
2022-08-08T20:38:32.212Z,18.31
2022-08-08T20:41:00.761Z,18.19
2022-08-08T20:43:43.887Z,18.10
2022-08-08T20:46:14.698Z,18.02
2022-08-08T20:48:41.283Z,17.97
2022-08-08T20:51:08.685Z,17.90
2022-08-08T20:53:58.307Z,17.82
2022-08-08T20:56:35.803Z,17.43
2022-08-08T20:59:05.841Z,17.41
2022-08-08T21:02:05.553Z,17.40
2022-08-08T21:04:20.815Z,17.36
2022-08-08T21:06:52.410Z,17.39
2022-08-08T21:09:21.571Z,17.45
2022-08-08T21:11:52.114Z,17.39
2022-08-08T21:14:30.160Z,17.30
2022-08-08T21:17:01.273Z,17.28
2022-08-08T21:19:44.007Z,17.28
2022-08-08T21:22:11.491Z,17.26
2022-08-08T21:24:39.430Z,17.20
2022-08-08T21:27:15.378Z,17.17
2022-08-08T21:30:04.492Z,17.12
2022-08-08T21:32:38.953Z,17.02
2022-08-08T21:36:16.326Z,16.95
2022-08-08T21:37:54.778Z,16.86
2022-08-08T21:40:31.222Z,16.87
2022-08-08T21:42:58.377Z,16.86
2022-08-08T21:48:01.706Z,16.81
2022-08-08T21:48:16.349Z,16.69
2022-08-08T21:50:46.272Z,16.70
2022-08-08T21:54:22.983Z,16.80
2022-08-08T21:56:19.983Z,16.76
2022-08-08T21:58:52.800Z,16.54
2022-08-08T22:01:38.969Z,16.55
2022-08-08T22:04:11.258Z,16.44
2022-08-08T22:06:40.540Z,16.46
2022-08-08T22:09:09.628Z,16.44
2022-08-08T22:12:02.367Z,16.40
2022-08-08T22:14:26.372Z,16.31
2022-08-08T22:16:54.225Z,16.24
2022-08-08T22:19:23.911Z,16.13
2022-08-08T22:21:52.995Z,16.02
2022-08-08T22:24:23.856Z,16.03
2022-08-08T22:27:01.388Z,16.05
2022-08-08T22:29:59.552Z,16.02
2022-08-08T22:32:18.183Z,15.75
2022-08-08T22:34:50.560Z,15.81
2022-08-08T22:37:49.759Z,15.76
2022-08-08T22:40:16.578Z,15.67
2022-08-08T22:42:47.067Z,15.70
2022-08-08T22:45:15.542Z,15.81
2022-08-08T22:47:46.825Z,15.95
2022-08-08T22:50:27.141Z,16.05
2022-08-08T22:54:31.899Z,16.01
2022-08-08T22:55:59.042Z,15.98
2022-08-08T22:58:34.773Z,15.92
2022-08-08T23:02:01.053Z,15.82
2022-08-08T23:03:57.737Z,15.72
2022-08-08T23:06:27.564Z,15.70
2022-08-08T23:08:59.075Z,15.70
2022-08-08T23:11:57.925Z,15.70
2022-08-08T23:14:21.149Z,15.61
2022-08-08T23:16:54.516Z,15.55
2022-08-08T23:19:27.937Z,15.54
2022-08-08T23:22:04.710Z,15.47
2022-08-08T23:24:36.549Z,15.41
2022-08-08T23:27:09.699Z,15.36
2022-08-08T23:29:37.186Z,15.33
2022-08-08T23:32:05.729Z,15.31
2022-08-08T23:34:37.748Z,15.29
2022-08-08T23:37:04.899Z,15.28
2022-08-08T23:39:42.243Z,15.22
2022-08-08T23:42:15.915Z,15.22
2022-08-08T23:44:42.880Z,15.21
2022-08-08T23:49:01.309Z,15.24
2022-08-08T23:50:03.087Z,15.28
2022-08-08T23:52:33.325Z,15.34
2022-08-08T23:55:14.267Z,15.36
2022-08-08T23:57:52.371Z,15.34
